sensor_id;sensor_type;location;lat;lon;timestamp;P1;durP1;ratioP1;P2;durP2;ratioP2
78322;SDS011;67583;50.616;-3.404;2023-07-29T00:00:19;6.53;;;2.30;;
78322;SDS011;67583;50.616;-3.404;2023-07-29T00:02:45;8.30;;;2.50;;
78322;SDS011;67583;50.616;-3.404;2023-07-29T00:05:10;8.88;;;2.80;;
78322;SDS011;67583;50.616;-3.404;2023-07-29T00:07:36;6.70;;;3.60;;
78322;SDS011;67583;50.616;-3.404;2023-07-29T00:10:02;8.82;;;4.00;;
78322;SDS011;67583;50.616;-3.404;2023-07-29T00:12:28;11.32;;;3.45;;
78322;SDS011;67583;50.616;-3.404;2023-07-29T00:14:53;5.22;;;2.65;;
78322;SDS011;67583;50.616;-3.404;2023-07-29T00:17:19;7.55;;;2.70;;
78322;SDS011;67583;50.616;-3.404;2023-07-29T00:19:45;4.97;;;2.60;;
78322;SDS011;67583;50.616;-3.404;2023-07-29T00:22:10;11.45;;;3.42;;
78322;SDS011;67583;50.616;-3.404;2023-07-29T00:24:36;5.82;;;2.75;;
78322;SDS011;67583;50.616;-3.404;2023-07-29T00:27:01;7.10;;;2.92;;
78322;SDS011;67583;50.616;-3.404;2023-07-29T00:29:27;6.90;;;2.65;;
78322;SDS011;67583;50.616;-3.404;2023-07-29T00:31:52;9.02;;;3.97;;
78322;SDS011;67583;50.616;-3.404;2023-07-29T00:34:17;13.70;;;3.45;;
78322;SDS011;67583;50.616;-3.404;2023-07-29T00:36:44;13.52;;;3.35;;
78322;SDS011;67583;50.616;-3.404;2023-07-29T00:39:10;6.25;;;3.25;;
78322;SDS011;67583;50.616;-3.404;2023-07-29T00:41:36;9.65;;;4.32;;
78322;SDS011;67583;50.616;-3.404;2023-07-29T00:44:01;8.27;;;4.53;;
78322;SDS011;67583;50.616;-3.404;2023-07-29T00:46:27;5.40;;;3.40;;
78322;SDS011;67583;50.616;-3.404;2023-07-29T00:48:53;11.15;;;3.92;;
78322;SDS011;67583;50.616;-3.404;2023-07-29T00:51:19;8.07;;;3.88;;
78322;SDS011;67583;50.616;-3.404;2023-07-29T00:53:44;9.10;;;3.38;;
78322;SDS011;67583;50.616;-3.404;2023-07-29T00:56:09;7.25;;;3.55;;
78322;SDS011;67583;50.616;-3.404;2023-07-29T00:58:35;7.82;;;3.53;;
78322;SDS011;67583;50.616;-3.404;2023-07-29T01:01:00;9.23;;;3.38;;
78322;SDS011;67583;50.616;-3.404;2023-07-29T01:03:26;7.85;;;3.35;;
78322;SDS011;67583;50.616;-3.404;2023-07-29T01:08:38;12.05;;;3.42;;
78322;SDS011;67583;50.616;-3.404;2023-07-29T01:11:15;7.53;;;3.10;;
78322;SDS011;67583;50.616;-3.404;2023-07-29T01:13:50;7.22;;;4.15;;
78322;SDS011;67583;50.616;-3.404;2023-07-29T01:16:21;5.57;;;3.08;;
78322;SDS011;67583;50.616;-3.404;2023-07-29T01:18:49;13.93;;;4.10;;
78322;SDS011;67583;50.616;-3.404;2023-07-29T01:21:17;5.97;;;2.97;;
78322;SDS011;67583;50.616;-3.404;2023-07-29T01:23:44;9.07;;;4.35;;
78322;SDS011;67583;50.616;-3.404;2023-07-29T01:26:09;5.97;;;2.92;;
78322;SDS011;67583;50.616;-3.404;2023-07-29T01:28:35;5.97;;;3.10;;
78322;SDS011;67583;50.616;-3.404;2023-07-29T01:33:38;5.15;;;3.28;;
78322;SDS011;67583;50.616;-3.404;2023-07-29T01:36:13;10.43;;;3.72;;
78322;SDS011;67583;50.616;-3.404;2023-07-29T01:38:42;7.93;;;3.30;;
78322;SDS011;67583;50.616;-3.404;2023-07-29T01:41:09;9.13;;;4.28;;
78322;SDS011;67583;50.616;-3.404;2023-07-29T01:43:35;10.45;;;4.05;;
78322;SDS011;67583;50.616;-3.404;2023-07-29T01:46:07;5.93;;;3.20;;
78322;SDS011;67583;50.616;-3.404;2023-07-29T01:48:33;7.50;;;3.63;;
78322;SDS011;67583;50.616;-3.404;2023-07-29T01:50:59;14.63;;;5.10;;
78322;SDS011;67583;50.616;-3.404;2023-07-29T01:53:24;8.45;;;2.83;;
78322;SDS011;67583;50.616;-3.404;2023-07-29T01:55:49;7.40;;;3.30;;
78322;SDS011;67583;50.616;-3.404;2023-07-29T01:58:15;6.22;;;2.88;;
78322;SDS011;67583;50.616;-3.404;2023-07-29T02:00:41;9.77;;;3.10;;
78322;SDS011;67583;50.616;-3.404;2023-07-29T02:03:06;6.18;;;3.00;;
78322;SDS011;67583;50.616;-3.404;2023-07-29T02:05:31;6.43;;;2.83;;
78322;SDS011;67583;50.616;-3.404;2023-07-29T02:07:57;4.18;;;2.40;;
78322;SDS011;67583;50.616;-3.404;2023-07-29T02:10:22;9.60;;;3.17;;
78322;SDS011;67583;50.616;-3.404;2023-07-29T02:12:47;7.25;;;2.78;;
78322;SDS011;67583;50.616;-3.404;2023-07-29T02:15:13;7.00;;;2.90;;
78322;SDS011;67583;50.616;-3.404;2023-07-29T02:17:39;8.45;;;2.88;;
78322;SDS011;67583;50.616;-3.404;2023-07-29T02:20:07;5.40;;;2.55;;
78322;SDS011;67583;50.616;-3.404;2023-07-29T02:22:33;6.25;;;2.75;;
78322;SDS011;67583;50.616;-3.404;2023-07-29T02:24:59;5.38;;;2.22;;
78322;SDS011;67583;50.616;-3.404;2023-07-29T02:27:24;5.18;;;2.55;;
78322;SDS011;67583;50.616;-3.404;2023-07-29T02:29:52;6.10;;;2.60;;
78322;SDS011;67583;50.616;-3.404;2023-07-29T02:32:17;5.65;;;2.20;;
78322;SDS011;67583;50.616;-3.404;2023-07-29T02:34:44;4.03;;;2.13;;
78322;SDS011;67583;50.616;-3.404;2023-07-29T02:37:09;6.03;;;2.30;;
78322;SDS011;67583;50.616;-3.404;2023-07-29T02:39:34;4.55;;;2.53;;
78322;SDS011;67583;50.616;-3.404;2023-07-29T02:42:00;6.35;;;2.25;;
78322;SDS011;67583;50.616;-3.404;2023-07-29T02:44:25;5.07;;;1.92;;
78322;SDS011;67583;50.616;-3.404;2023-07-29T02:46:50;5.47;;;2.05;;
78322;SDS011;67583;50.616;-3.404;2023-07-29T02:49:17;4.20;;;2.20;;
78322;SDS011;67583;50.616;-3.404;2023-07-29T02:51:42;6.25;;;2.60;;
78322;SDS011;67583;50.616;-3.404;2023-07-29T02:54:08;3.28;;;1.92;;
78322;SDS011;67583;50.616;-3.404;2023-07-29T02:56:33;4.20;;;2.25;;
78322;SDS011;67583;50.616;-3.404;2023-07-29T02:58:59;3.08;;;2.08;;
78322;SDS011;67583;50.616;-3.404;2023-07-29T03:01:25;4.80;;;2.15;;
78322;SDS011;67583;50.616;-3.404;2023-07-29T03:03:50;6.45;;;2.03;;
78322;SDS011;67583;50.616;-3.404;2023-07-29T03:06:16;5.28;;;2.33;;
78322;SDS011;67583;50.616;-3.404;2023-07-29T03:08:41;2.83;;;1.80;;
78322;SDS011;67583;50.616;-3.404;2023-07-29T03:11:07;4.88;;;1.90;;
78322;SDS011;67583;50.616;-3.404;2023-07-29T03:13:34;3.15;;;1.70;;
78322;SDS011;67583;50.616;-3.404;2023-07-29T03:18:32;4.75;;;2.15;;
78322;SDS011;67583;50.616;-3.404;2023-07-29T03:20:57;5.63;;;2.03;;
78322;SDS011;67583;50.616;-3.404;2023-07-29T03:23:22;5.63;;;1.60;;
78322;SDS011;67583;50.616;-3.404;2023-07-29T03:25:48;2.67;;;1.95;;
78322;SDS011;67583;50.616;-3.404;2023-07-29T03:28:16;5.22;;;2.08;;
78322;SDS011;67583;50.616;-3.404;2023-07-29T03:30:41;3.22;;;1.80;;
78322;SDS011;67583;50.616;-3.404;2023-07-29T03:33:07;6.03;;;2.25;;
78322;SDS011;67583;50.616;-3.404;2023-07-29T03:35:32;4.28;;;1.95;;
78322;SDS011;67583;50.616;-3.404;2023-07-29T03:37:58;3.90;;;2.22;;
78322;SDS011;67583;50.616;-3.404;2023-07-29T03:40:23;4.68;;;2.50;;
78322;SDS011;67583;50.616;-3.404;2023-07-29T03:42:48;5.38;;;2.00;;
78322;SDS011;67583;50.616;-3.404;2023-07-29T03:45:14;5.25;;;2.10;;
78322;SDS011;67583;50.616;-3.404;2023-07-29T03:47:40;4.18;;;2.13;;
78322;SDS011;67583;50.616;-3.404;2023-07-29T03:50:05;3.38;;;2.15;;
78322;SDS011;67583;50.616;-3.404;2023-07-29T03:52:31;8.02;;;2.33;;
78322;SDS011;67583;50.616;-3.404;2023-07-29T03:54:56;5.93;;;2.20;;
78322;SDS011;67583;50.616;-3.404;2023-07-29T03:57:22;4.05;;;2.20;;
78322;SDS011;67583;50.616;-3.404;2023-07-29T03:59:47;5.30;;;2.30;;
78322;SDS011;67583;50.616;-3.404;2023-07-29T04:02:13;5.22;;;2.25;;
78322;SDS011;67583;50.616;-3.404;2023-07-29T04:04:38;5.35;;;2.17;;
78322;SDS011;67583;50.616;-3.404;2023-07-29T04:07:04;5.13;;;2.30;;
78322;SDS011;67583;50.616;-3.404;2023-07-29T04:09:30;6.07;;;2.33;;
78322;SDS011;67583;50.616;-3.404;2023-07-29T04:11:55;4.53;;;2.17;;
78322;SDS011;67583;50.616;-3.404;2023-07-29T04:14:21;5.38;;;2.20;;
78322;SDS011;67583;50.616;-3.404;2023-07-29T04:16:47;3.60;;;2.28;;
78322;SDS011;67583;50.616;-3.404;2023-07-29T04:19:14;5.80;;;2.53;;
78322;SDS011;67583;50.616;-3.404;2023-07-29T04:21:39;4.70;;;2.53;;
78322;SDS011;67583;50.616;-3.404;2023-07-29T04:24:05;8.52;;;2.70;;
78322;SDS011;67583;50.616;-3.404;2023-07-29T04:26:30;5.25;;;2.67;;
78322;SDS011;67583;50.616;-3.404;2023-07-29T04:28:55;4.45;;;2.70;;
78322;SDS011;67583;50.616;-3.404;2023-07-29T04:31:21;4.82;;;2.50;;
78322;SDS011;67583;50.616;-3.404;2023-07-29T04:33:46;6.13;;;2.67;;
78322;SDS011;67583;50.616;-3.404;2023-07-29T04:36:12;6.30;;;2.58;;
78322;SDS011;67583;50.616;-3.404;2023-07-29T04:38:37;4.25;;;2.20;;
78322;SDS011;67583;50.616;-3.404;2023-07-29T04:41:02;6.00;;;2.47;;
78322;SDS011;67583;50.616;-3.404;2023-07-29T04:43:30;10.70;;;2.78;;
78322;SDS011;67583;50.616;-3.404;2023-07-29T04:45:56;7.75;;;3.03;;
78322;SDS011;67583;50.616;-3.404;2023-07-29T04:48:21;5.80;;;2.55;;
78322;SDS011;67583;50.616;-3.404;2023-07-29T04:50:47;4.18;;;2.80;;
78322;SDS011;67583;50.616;-3.404;2023-07-29T04:53:12;6.00;;;2.70;;
78322;SDS011;67583;50.616;-3.404;2023-07-29T04:55:38;5.90;;;3.30;;
78322;SDS011;67583;50.616;-3.404;2023-07-29T04:58:03;4.82;;;2.55;;
78322;SDS011;67583;50.616;-3.404;2023-07-29T05:00:28;5.43;;;2.42;;
78322;SDS011;67583;50.616;-3.404;2023-07-29T05:02:54;7.53;;;2.78;;
78322;SDS011;67583;50.616;-3.404;2023-07-29T05:05:19;4.82;;;2.70;;
78322;SDS011;67583;50.616;-3.404;2023-07-29T05:07:45;8.40;;;3.40;;
78322;SDS011;67583;50.616;-3.404;2023-07-29T05:10:10;5.82;;;2.55;;
78322;SDS011;67583;50.616;-3.404;2023-07-29T05:12:36;4.97;;;2.75;;
78322;SDS011;67583;50.616;-3.404;2023-07-29T05:15:01;5.97;;;2.33;;
78322;SDS011;67583;50.616;-3.404;2023-07-29T05:17:27;9.70;;;3.22;;
78322;SDS011;67583;50.616;-3.404;2023-07-29T05:19:53;6.07;;;2.40;;
78322;SDS011;67583;50.616;-3.404;2023-07-29T05:22:18;6.72;;;3.28;;
78322;SDS011;67583;50.616;-3.404;2023-07-29T05:24:44;5.95;;;2.50;;
78322;SDS011;67583;50.616;-3.404;2023-07-29T05:27:09;5.97;;;3.00;;
78322;SDS011;67583;50.616;-3.404;2023-07-29T05:29:34;8.63;;;3.13;;
78322;SDS011;67583;50.616;-3.404;2023-07-29T05:32:00;9.63;;;3.97;;
78322;SDS011;67583;50.616;-3.404;2023-07-29T05:34:26;6.13;;;3.15;;
78322;SDS011;67583;50.616;-3.404;2023-07-29T05:36:51;6.80;;;3.40;;
78322;SDS011;67583;50.616;-3.404;2023-07-29T05:39:17;9.10;;;3.55;;
78322;SDS011;67583;50.616;-3.404;2023-07-29T05:41:42;6.70;;;3.10;;
78322;SDS011;67583;50.616;-3.404;2023-07-29T05:44:07;8.48;;;3.17;;
78322;SDS011;67583;50.616;-3.404;2023-07-29T05:46:33;8.45;;;3.63;;
78322;SDS011;67583;50.616;-3.404;2023-07-29T05:48:58;6.50;;;2.83;;
78322;SDS011;67583;50.616;-3.404;2023-07-29T05:51:24;8.10;;;4.05;;
78322;SDS011;67583;50.616;-3.404;2023-07-29T05:53:49;7.97;;;3.50;;
78322;SDS011;67583;50.616;-3.404;2023-07-29T05:56:14;7.03;;;3.03;;
78322;SDS011;67583;50.616;-3.404;2023-07-29T05:58:40;11.73;;;4.60;;
78322;SDS011;67583;50.616;-3.404;2023-07-29T06:01:05;14.80;;;3.60;;
78322;SDS011;67583;50.616;-3.404;2023-07-29T06:03:30;7.07;;;3.03;;
78322;SDS011;67583;50.616;-3.404;2023-07-29T06:05:56;11.77;;;3.30;;
78322;SDS011;67583;50.616;-3.404;2023-07-29T06:08:21;8.32;;;3.53;;
78322;SDS011;67583;50.616;-3.404;2023-07-29T06:10:46;9.55;;;3.03;;
78322;SDS011;67583;50.616;-3.404;2023-07-29T06:13:12;7.80;;;2.95;;
78322;SDS011;67583;50.616;-3.404;2023-07-29T06:15:37;10.25;;;3.35;;
78322;SDS011;67583;50.616;-3.404;2023-07-29T06:18:03;9.30;;;3.58;;
78322;SDS011;67583;50.616;-3.404;2023-07-29T06:20:28;9.85;;;3.20;;
78322;SDS011;67583;50.616;-3.404;2023-07-29T06:22:54;7.63;;;3.20;;
78322;SDS011;67583;50.616;-3.404;2023-07-29T06:25:19;6.57;;;3.63;;
78322;SDS011;67583;50.616;-3.404;2023-07-29T06:27:44;12.90;;;4.00;;
78322;SDS011;67583;50.616;-3.404;2023-07-29T06:30:10;8.90;;;3.38;;
78322;SDS011;67583;50.616;-3.404;2023-07-29T06:32:35;8.10;;;3.45;;
78322;SDS011;67583;50.616;-3.404;2023-07-29T06:35:01;9.15;;;3.15;;
78322;SDS011;67583;50.616;-3.404;2023-07-29T06:37:26;15.30;;;3.97;;
78322;SDS011;67583;50.616;-3.404;2023-07-29T06:39:52;8.55;;;3.33;;
78322;SDS011;67583;50.616;-3.404;2023-07-29T06:42:17;8.02;;;3.15;;
78322;SDS011;67583;50.616;-3.404;2023-07-29T06:44:43;6.70;;;3.42;;
78322;SDS011;67583;50.616;-3.404;2023-07-29T06:47:10;10.77;;;3.10;;
78322;SDS011;67583;50.616;-3.404;2023-07-29T06:49:36;12.60;;;4.80;;
78322;SDS011;67583;50.616;-3.404;2023-07-29T06:52:01;8.73;;;3.25;;
78322;SDS011;67583;50.616;-3.404;2023-07-29T06:54:27;8.43;;;2.95;;
78322;SDS011;67583;50.616;-3.404;2023-07-29T06:56:52;12.65;;;3.78;;
78322;SDS011;67583;50.616;-3.404;2023-07-29T06:59:18;15.95;;;3.33;;
78322;SDS011;67583;50.616;-3.404;2023-07-29T07:01:43;9.57;;;3.40;;
78322;SDS011;67583;50.616;-3.404;2023-07-29T07:04:09;8.80;;;3.38;;
78322;SDS011;67583;50.616;-3.404;2023-07-29T07:06:34;16.75;;;4.30;;
78322;SDS011;67583;50.616;-3.404;2023-07-29T07:09:00;10.35;;;3.90;;
78322;SDS011;67583;50.616;-3.404;2023-07-29T07:11:25;11.68;;;4.38;;
78322;SDS011;67583;50.616;-3.404;2023-07-29T07:13:51;14.85;;;3.50;;
78322;SDS011;67583;50.616;-3.404;2023-07-29T07:16:16;12.85;;;3.20;;
78322;SDS011;67583;50.616;-3.404;2023-07-29T07:18:41;11.05;;;2.88;;
78322;SDS011;67583;50.616;-3.404;2023-07-29T07:21:07;11.15;;;2.92;;
78322;SDS011;67583;50.616;-3.404;2023-07-29T07:23:32;8.55;;;3.30;;
78322;SDS011;67583;50.616;-3.404;2023-07-29T07:25:57;10.18;;;3.00;;
78322;SDS011;67583;50.616;-3.404;2023-07-29T07:28:23;8.00;;;3.00;;
78322;SDS011;67583;50.616;-3.404;2023-07-29T07:30:48;8.52;;;2.60;;
78322;SDS011;67583;50.616;-3.404;2023-07-29T07:33:14;7.88;;;3.63;;
78322;SDS011;67583;50.616;-3.404;2023-07-29T07:35:39;8.30;;;2.80;;
78322;SDS011;67583;50.616;-3.404;2023-07-29T07:38:07;7.10;;;2.70;;
78322;SDS011;67583;50.616;-3.404;2023-07-29T07:40:34;8.98;;;2.85;;
78322;SDS011;67583;50.616;-3.404;2023-07-29T07:43:00;7.93;;;2.25;;
78322;SDS011;67583;50.616;-3.404;2023-07-29T07:45:26;9.10;;;2.40;;
78322;SDS011;67583;50.616;-3.404;2023-07-29T07:47:52;7.95;;;2.50;;
78322;SDS011;67583;50.616;-3.404;2023-07-29T07:50:18;10.35;;;2.63;;
78322;SDS011;67583;50.616;-3.404;2023-07-29T07:52:44;9.48;;;2.88;;
78322;SDS011;67583;50.616;-3.404;2023-07-29T07:55:09;5.50;;;2.13;;
78322;SDS011;67583;50.616;-3.404;2023-07-29T07:57:34;10.32;;;2.70;;
78322;SDS011;67583;50.616;-3.404;2023-07-29T08:00:00;7.90;;;2.38;;
78322;SDS011;67583;50.616;-3.404;2023-07-29T08:02:25;8.85;;;2.50;;
78322;SDS011;67583;50.616;-3.404;2023-07-29T08:04:50;5.65;;;1.92;;
78322;SDS011;67583;50.616;-3.404;2023-07-29T08:07:16;9.02;;;2.38;;
78322;SDS011;67583;50.616;-3.404;2023-07-29T08:09:41;5.70;;;2.10;;
78322;SDS011;67583;50.616;-3.404;2023-07-29T08:12:06;7.88;;;2.53;;
78322;SDS011;67583;50.616;-3.404;2023-07-29T08:14:32;6.55;;;2.20;;
78322;SDS011;67583;50.616;-3.404;2023-07-29T08:16:58;9.70;;;2.38;;
78322;SDS011;67583;50.616;-3.404;2023-07-29T08:19:23;5.75;;;2.00;;
78322;SDS011;67583;50.616;-3.404;2023-07-29T08:21:49;3.83;;;2.03;;
78322;SDS011;67583;50.616;-3.404;2023-07-29T08:24:14;7.70;;;2.22;;
78322;SDS011;67583;50.616;-3.404;2023-07-29T08:26:39;5.63;;;2.00;;
78322;SDS011;67583;50.616;-3.404;2023-07-29T08:29:05;10.25;;;2.30;;
78322;SDS011;67583;50.616;-3.404;2023-07-29T08:31:30;8.73;;;2.33;;
78322;SDS011;67583;50.616;-3.404;2023-07-29T08:33:58;4.10;;;2.08;;
78322;SDS011;67583;50.616;-3.404;2023-07-29T08:36:24;6.65;;;2.50;;
78322;SDS011;67583;50.616;-3.404;2023-07-29T08:38:49;6.43;;;2.15;;
78322;SDS011;67583;50.616;-3.404;2023-07-29T08:44:10;5.50;;;2.58;;
78322;SDS011;67583;50.616;-3.404;2023-07-29T08:46:49;6.57;;;1.90;;
78322;SDS011;67583;50.616;-3.404;2023-07-29T08:49:15;7.50;;;2.72;;
78322;SDS011;67583;50.616;-3.404;2023-07-29T08:51:44;9.93;;;2.05;;
78322;SDS011;67583;50.616;-3.404;2023-07-29T08:54:11;6.20;;;2.10;;
78322;SDS011;67583;50.616;-3.404;2023-07-29T08:56:37;6.40;;;2.25;;
78322;SDS011;67583;50.616;-3.404;2023-07-29T08:59:03;6.50;;;2.38;;
78322;SDS011;67583;50.616;-3.404;2023-07-29T09:01:30;6.07;;;2.30;;
78322;SDS011;67583;50.616;-3.404;2023-07-29T09:03:55;8.88;;;3.38;;
78322;SDS011;67583;50.616;-3.404;2023-07-29T09:06:21;6.32;;;1.90;;
78322;SDS011;67583;50.616;-3.404;2023-07-29T09:08:48;5.20;;;1.67;;
78322;SDS011;67583;50.616;-3.404;2023-07-29T09:11:14;4.70;;;1.60;;
78322;SDS011;67583;50.616;-3.404;2023-07-29T09:13:42;9.80;;;2.33;;
78322;SDS011;67583;50.616;-3.404;2023-07-29T09:16:07;6.07;;;1.55;;
78322;SDS011;67583;50.616;-3.404;2023-07-29T09:18:33;6.38;;;1.80;;
78322;SDS011;67583;50.616;-3.404;2023-07-29T09:20:59;4.60;;;1.73;;
78322;SDS011;67583;50.616;-3.404;2023-07-29T09:23:26;5.43;;;1.88;;
78322;SDS011;67583;50.616;-3.404;2023-07-29T09:25:52;5.28;;;1.83;;
78322;SDS011;67583;50.616;-3.404;2023-07-29T09:28:25;8.77;;;1.90;;
78322;SDS011;67583;50.616;-3.404;2023-07-29T09:30:52;6.85;;;2.63;;
78322;SDS011;67583;50.616;-3.404;2023-07-29T09:33:18;4.28;;;2.28;;
78322;SDS011;67583;50.616;-3.404;2023-07-29T09:35:43;6.03;;;1.90;;
78322;SDS011;67583;50.616;-3.404;2023-07-29T09:38:13;5.38;;;2.15;;
78322;SDS011;67583;50.616;-3.404;2023-07-29T09:40:40;4.43;;;1.77;;
78322;SDS011;67583;50.616;-3.404;2023-07-29T09:43:06;4.75;;;1.70;;
78322;SDS011;67583;50.616;-3.404;2023-07-29T09:45:33;8.95;;;1.70;;
78322;SDS011;67583;50.616;-3.404;2023-07-29T09:48:00;6.18;;;2.30;;
78322;SDS011;67583;50.616;-3.404;2023-07-29T09:50:26;4.03;;;1.52;;
78322;SDS011;67583;50.616;-3.404;2023-07-29T09:52:53;5.72;;;2.33;;
78322;SDS011;67583;50.616;-3.404;2023-07-29T09:55:20;3.25;;;1.83;;
78322;SDS011;67583;50.616;-3.404;2023-07-29T09:57:47;8.30;;;2.80;;
78322;SDS011;67583;50.616;-3.404;2023-07-29T10:00:12;6.18;;;2.45;;
78322;SDS011;67583;50.616;-3.404;2023-07-29T10:02:41;5.82;;;1.60;;
78322;SDS011;67583;50.616;-3.404;2023-07-29T10:05:08;4.88;;;1.55;;
78322;SDS011;67583;50.616;-3.404;2023-07-29T10:07:34;4.00;;;1.42;;
78322;SDS011;67583;50.616;-3.404;2023-07-29T10:10:02;3.33;;;1.50;;
78322;SDS011;67583;50.616;-3.404;2023-07-29T10:12:30;9.93;;;2.00;;
78322;SDS011;67583;50.616;-3.404;2023-07-29T10:14:58;6.28;;;1.80;;
78322;SDS011;67583;50.616;-3.404;2023-07-29T10:17:25;6.82;;;2.00;;
78322;SDS011;67583;50.616;-3.404;2023-07-29T10:19:51;6.35;;;1.80;;
78322;SDS011;67583;50.616;-3.404;2023-07-29T10:22:17;5.15;;;1.63;;
78322;SDS011;67583;50.616;-3.404;2023-07-29T10:24:45;4.43;;;1.40;;
78322;SDS011;67583;50.616;-3.404;2023-07-29T10:27:12;4.30;;;1.58;;
78322;SDS011;67583;50.616;-3.404;2023-07-29T10:29:39;3.25;;;1.63;;
78322;SDS011;67583;50.616;-3.404;2023-07-29T10:32:08;5.22;;;1.63;;
78322;SDS011;67583;50.616;-3.404;2023-07-29T10:34:36;6.85;;;1.55;;
78322;SDS011;67583;50.616;-3.404;2023-07-29T10:37:01;7.65;;;1.88;;
78322;SDS011;67583;50.616;-3.404;2023-07-29T10:39:27;2.92;;;1.27;;
78322;SDS011;67583;50.616;-3.404;2023-07-29T10:49:43;5.63;;;1.73;;
78322;SDS011;67583;50.616;-3.404;2023-07-29T10:52:08;11.50;;;4.03;;
78322;SDS011;67583;50.616;-3.404;2023-07-29T10:54:44;5.97;;;2.15;;
78322;SDS011;67583;50.616;-3.404;2023-07-29T10:57:30;8.57;;;2.13;;
78322;SDS011;67583;50.616;-3.404;2023-07-29T10:59:57;5.43;;;1.90;;
78322;SDS011;67583;50.616;-3.404;2023-07-29T11:02:28;6.47;;;1.88;;
78322;SDS011;67583;50.616;-3.404;2023-07-29T11:04:55;5.72;;;1.45;;
78322;SDS011;67583;50.616;-3.404;2023-07-29T11:07:21;5.15;;;1.98;;
78322;SDS011;67583;50.616;-3.404;2023-07-29T11:12:41;8.10;;;1.80;;
78322;SDS011;67583;50.616;-3.404;2023-07-29T11:17:46;7.47;;;1.98;;
78322;SDS011;67583;50.616;-3.404;2023-07-29T11:20:12;5.97;;;1.80;;
78322;SDS011;67583;50.616;-3.404;2023-07-29T11:22:38;7.25;;;2.58;;
78322;SDS011;67583;50.616;-3.404;2023-07-29T11:25:04;6.45;;;1.98;;
78322;SDS011;67583;50.616;-3.404;2023-07-29T11:27:31;7.90;;;2.65;;
78322;SDS011;67583;50.616;-3.404;2023-07-29T11:29:59;7.28;;;2.25;;
78322;SDS011;67583;50.616;-3.404;2023-07-29T11:32:26;4.47;;;1.80;;
78322;SDS011;67583;50.616;-3.404;2023-07-29T11:34:52;8.20;;;1.83;;
78322;SDS011;67583;50.616;-3.404;2023-07-29T11:37:17;8.38;;;2.00;;
78322;SDS011;67583;50.616;-3.404;2023-07-29T11:39:46;5.15;;;1.55;;
78322;SDS011;67583;50.616;-3.404;2023-07-29T11:42:12;12.10;;;3.38;;
78322;SDS011;67583;50.616;-3.404;2023-07-29T11:44:38;6.93;;;2.08;;
78322;SDS011;67583;50.616;-3.404;2023-07-29T11:47:07;4.15;;;1.50;;
78322;SDS011;67583;50.616;-3.404;2023-07-29T11:49:37;5.43;;;1.70;;
78322;SDS011;67583;50.616;-3.404;2023-07-29T11:52:05;5.88;;;1.88;;
78322;SDS011;67583;50.616;-3.404;2023-07-29T11:54:31;7.72;;;1.77;;
78322;SDS011;67583;50.616;-3.404;2023-07-29T11:56:57;7.00;;;1.77;;
78322;SDS011;67583;50.616;-3.404;2023-07-29T11:59:23;6.47;;;2.05;;
78322;SDS011;67583;50.616;-3.404;2023-07-29T12:01:48;8.60;;;1.75;;
78322;SDS011;67583;50.616;-3.404;2023-07-29T12:04:14;3.75;;;1.75;;
78322;SDS011;67583;50.616;-3.404;2023-07-29T12:06:39;5.50;;;1.90;;
78322;SDS011;67583;50.616;-3.404;2023-07-29T12:09:05;4.40;;;1.73;;
78322;SDS011;67583;50.616;-3.404;2023-07-29T12:11:31;5.22;;;1.58;;
78322;SDS011;67583;50.616;-3.404;2023-07-29T12:13:57;4.20;;;1.95;;
78322;SDS011;67583;50.616;-3.404;2023-07-29T12:16:22;2.63;;;1.52;;
78322;SDS011;67583;50.616;-3.404;2023-07-29T12:18:50;4.18;;;1.60;;
78322;SDS011;67583;50.616;-3.404;2023-07-29T12:21:15;4.88;;;1.40;;
78322;SDS011;67583;50.616;-3.404;2023-07-29T12:23:41;4.78;;;1.77;;
78322;SDS011;67583;50.616;-3.404;2023-07-29T12:26:06;4.40;;;1.35;;
78322;SDS011;67583;50.616;-3.404;2023-07-29T12:28:31;6.68;;;2.40;;
78322;SDS011;67583;50.616;-3.404;2023-07-29T12:30:57;4.20;;;1.52;;
78322;SDS011;67583;50.616;-3.404;2023-07-29T12:33:32;6.07;;;1.40;;
78322;SDS011;67583;50.616;-3.404;2023-07-29T12:36:02;3.50;;;1.58;;
78322;SDS011;67583;50.616;-3.404;2023-07-29T12:38:28;2.88;;;1.38;;
78322;SDS011;67583;50.616;-3.404;2023-07-29T12:40:54;5.25;;;1.50;;
78322;SDS011;67583;50.616;-3.404;2023-07-29T12:43:20;4.63;;;1.58;;
78322;SDS011;67583;50.616;-3.404;2023-07-29T12:45:45;4.95;;;1.70;;
78322;SDS011;67583;50.616;-3.404;2023-07-29T12:48:11;6.10;;;1.80;;
78322;SDS011;67583;50.616;-3.404;2023-07-29T12:50:37;6.82;;;1.92;;
78322;SDS011;67583;50.616;-3.404;2023-07-29T12:53:04;4.22;;;1.48;;
78322;SDS011;67583;50.616;-3.404;2023-07-29T12:55:30;9.75;;;1.92;;
78322;SDS011;67583;50.616;-3.404;2023-07-29T12:57:55;5.20;;;1.30;;
78322;SDS011;67583;50.616;-3.404;2023-07-29T13:00:21;5.60;;;1.40;;
78322;SDS011;67583;50.616;-3.404;2023-07-29T13:02:46;5.25;;;1.58;;
78322;SDS011;67583;50.616;-3.404;2023-07-29T13:05:11;4.68;;;1.95;;
78322;SDS011;67583;50.616;-3.404;2023-07-29T13:07:40;4.25;;;1.88;;
78322;SDS011;67583;50.616;-3.404;2023-07-29T13:10:07;8.13;;;2.10;;
78322;SDS011;67583;50.616;-3.404;2023-07-29T13:12:33;10.00;;;2.20;;
78322;SDS011;67583;50.616;-3.404;2023-07-29T13:14:58;5.03;;;1.48;;
78322;SDS011;67583;50.616;-3.404;2023-07-29T13:17:24;6.43;;;2.00;;
78322;SDS011;67583;50.616;-3.404;2023-07-29T13:19:49;4.93;;;1.73;;
78322;SDS011;67583;50.616;-3.404;2023-07-29T13:22:15;6.95;;;2.25;;
78322;SDS011;67583;50.616;-3.404;2023-07-29T13:24:40;3.85;;;1.08;;
78322;SDS011;67583;50.616;-3.404;2023-07-29T13:27:06;3.22;;;1.30;;
78322;SDS011;67583;50.616;-3.404;2023-07-29T13:29:31;4.47;;;1.25;;
78322;SDS011;67583;50.616;-3.404;2023-07-29T13:31:57;4.75;;;1.45;;
78322;SDS011;67583;50.616;-3.404;2023-07-29T13:34:22;3.47;;;1.38;;
78322;SDS011;67583;50.616;-3.404;2023-07-29T13:36:47;4.28;;;1.80;;
78322;SDS011;67583;50.616;-3.404;2023-07-29T13:39:13;3.25;;;1.25;;
78322;SDS011;67583;50.616;-3.404;2023-07-29T13:41:38;4.05;;;1.40;;
78322;SDS011;67583;50.616;-3.404;2023-07-29T13:44:04;7.47;;;1.70;;
78322;SDS011;67583;50.616;-3.404;2023-07-29T13:46:29;5.95;;;1.55;;
78322;SDS011;67583;50.616;-3.404;2023-07-29T13:48:54;3.88;;;1.65;;
78322;SDS011;67583;50.616;-3.404;2023-07-29T13:51:20;9.20;;;1.70;;
78322;SDS011;67583;50.616;-3.404;2023-07-29T13:53:45;5.18;;;1.77;;
78322;SDS011;67583;50.616;-3.404;2023-07-29T13:56:10;2.88;;;1.45;;
78322;SDS011;67583;50.616;-3.404;2023-07-29T13:58:36;6.05;;;1.52;;
78322;SDS011;67583;50.616;-3.404;2023-07-29T14:01:01;4.72;;;1.83;;
78322;SDS011;67583;50.616;-3.404;2023-07-29T14:03:26;7.03;;;1.67;;
78322;SDS011;67583;50.616;-3.404;2023-07-29T14:05:52;8.25;;;1.98;;
78322;SDS011;67583;50.616;-3.404;2023-07-29T14:08:17;5.45;;;1.50;;
78322;SDS011;67583;50.616;-3.404;2023-07-29T14:10:43;7.47;;;2.35;;
78322;SDS011;67583;50.616;-3.404;2023-07-29T14:13:08;5.90;;;2.08;;
78322;SDS011;67583;50.616;-3.404;2023-07-29T14:15:33;3.85;;;1.40;;
78322;SDS011;67583;50.616;-3.404;2023-07-29T14:17:59;3.28;;;1.40;;
78322;SDS011;67583;50.616;-3.404;2023-07-29T14:20:24;6.28;;;2.05;;
78322;SDS011;67583;50.616;-3.404;2023-07-29T14:22:50;4.63;;;1.70;;
78322;SDS011;67583;50.616;-3.404;2023-07-29T14:25:15;3.25;;;1.40;;
78322;SDS011;67583;50.616;-3.404;2023-07-29T14:27:40;4.18;;;1.38;;
78322;SDS011;67583;50.616;-3.404;2023-07-29T14:30:06;6.45;;;1.80;;
78322;SDS011;67583;50.616;-3.404;2023-07-29T14:32:32;5.50;;;2.17;;
78322;SDS011;67583;50.616;-3.404;2023-07-29T14:34:58;4.22;;;1.80;;
78322;SDS011;67583;50.616;-3.404;2023-07-29T14:37:23;6.60;;;2.17;;
78322;SDS011;67583;50.616;-3.404;2023-07-29T14:39:48;3.17;;;1.48;;
78322;SDS011;67583;50.616;-3.404;2023-07-29T14:42:14;3.17;;;1.40;;
78322;SDS011;67583;50.616;-3.404;2023-07-29T14:44:40;4.75;;;1.65;;
78322;SDS011;67583;50.616;-3.404;2023-07-29T14:47:07;4.88;;;1.92;;
78322;SDS011;67583;50.616;-3.404;2023-07-29T14:49:33;3.80;;;1.40;;